sensor_id;sensor_type;location;lat;lon;timestamp;temperature;humidity
26107;DHT22;13866;50.748;12.630;2023-02-18T00:00:08;8.70;99.90
26107;DHT22;13866;50.748;12.630;2023-02-18T00:02:35;8.60;99.90
26107;DHT22;13866;50.748;12.630;2023-02-18T00:05:01;8.60;99.90
26107;DHT22;13866;50.748;12.630;2023-02-18T00:07:27;8.60;99.90
26107;DHT22;13866;50.748;12.630;2023-02-18T00:09:52;8.60;99.90
26107;DHT22;13866;50.748;12.630;2023-02-18T00:12:18;8.60;99.90
26107;DHT22;13866;50.748;12.630;2023-02-18T00:14:43;8.50;99.90
26107;DHT22;13866;50.748;12.630;2023-02-18T00:17:09;8.50;99.90
26107;DHT22;13866;50.748;12.630;2023-02-18T00:19:34;8.40;99.90
26107;DHT22;13866;50.748;12.630;2023-02-18T00:22:00;8.40;99.90
26107;DHT22;13866;50.748;12.630;2023-02-18T00:24:25;8.40;99.90
26107;DHT22;13866;50.748;12.630;2023-02-18T00:26:51;8.30;99.90
26107;DHT22;13866;50.748;12.630;2023-02-18T00:29:18;8.30;99.90
26107;DHT22;13866;50.748;12.630;2023-02-18T00:31:44;8.30;99.90
26107;DHT22;13866;50.748;12.630;2023-02-18T00:34:11;8.20;99.90
26107;DHT22;13866;50.748;12.630;2023-02-18T00:36:38;8.20;99.90
26107;DHT22;13866;50.748;12.630;2023-02-18T00:39:05;8.10;99.90
26107;DHT22;13866;50.748;12.630;2023-02-18T00:41:32;8.10;99.90
26107;DHT22;13866;50.748;12.630;2023-02-18T00:43:58;8.10;99.90
26107;DHT22;13866;50.748;12.630;2023-02-18T00:46:24;8.10;99.90
26107;DHT22;13866;50.748;12.630;2023-02-18T00:48:50;8.00;99.90
26107;DHT22;13866;50.748;12.630;2023-02-18T00:51:16;8.00;99.90
26107;DHT22;13866;50.748;12.630;2023-02-18T00:53:42;8.00;99.90
26107;DHT22;13866;50.748;12.630;2023-02-18T00:56:07;8.00;99.90
26107;DHT22;13866;50.748;12.630;2023-02-18T00:58:34;8.00;99.90
26107;DHT22;13866;50.748;12.630;2023-02-18T01:01:00;8.00;99.90
26107;DHT22;13866;50.748;12.630;2023-02-18T01:03:25;8.00;99.90
26107;DHT22;13866;50.748;12.630;2023-02-18T01:05:51;8.00;99.90
26107;DHT22;13866;50.748;12.630;2023-02-18T01:08:18;8.00;99.90
26107;DHT22;13866;50.748;12.630;2023-02-18T01:10:46;7.90;99.90
26107;DHT22;13866;50.748;12.630;2023-02-18T01:13:13;7.90;99.90
26107;DHT22;13866;50.748;12.630;2023-02-18T01:15:40;7.90;99.90
26107;DHT22;13866;50.748;12.630;2023-02-18T01:18:06;7.90;99.90
26107;DHT22;13866;50.748;12.630;2023-02-18T01:20:33;7.90;99.90
26107;DHT22;13866;50.748;12.630;2023-02-18T01:22:59;7.90;99.90
26107;DHT22;13866;50.748;12.630;2023-02-18T01:25:24;7.90;99.90
26107;DHT22;13866;50.748;12.630;2023-02-18T01:27:50;7.90;99.90
26107;DHT22;13866;50.748;12.630;2023-02-18T01:30:17;7.90;99.90
26107;DHT22;13866;50.748;12.630;2023-02-18T01:32:43;7.90;99.90
26107;DHT22;13866;50.748;12.630;2023-02-18T01:35:14;7.80;99.90
26107;DHT22;13866;50.748;12.630;2023-02-18T01:37:40;7.80;99.90
26107;DHT22;13866;50.748;12.630;2023-02-18T01:40:07;7.80;99.90
26107;DHT22;13866;50.748;12.630;2023-02-18T01:42:33;7.80;99.90
26107;DHT22;13866;50.748;12.630;2023-02-18T01:48:01;7.80;99.90
26107;DHT22;13866;50.748;12.630;2023-02-18T01:50:28;7.80;99.90
26107;DHT22;13866;50.748;12.630;2023-02-18T01:52:54;7.80;99.90
26107;DHT22;13866;50.748;12.630;2023-02-18T01:55:20;7.80;99.90
26107;DHT22;13866;50.748;12.630;2023-02-18T01:57:45;7.80;99.90
26107;DHT22;13866;50.748;12.630;2023-02-18T02:00:16;7.80;99.90
26107;DHT22;13866;50.748;12.630;2023-02-18T02:02:45;7.80;99.90
26107;DHT22;13866;50.748;12.630;2023-02-18T02:05:11;7.80;99.90
26107;DHT22;13866;50.748;12.630;2023-02-18T02:07:38;7.80;99.90
26107;DHT22;13866;50.748;12.630;2023-02-18T02:10:06;7.80;99.90
26107;DHT22;13866;50.748;12.630;2023-02-18T02:15:48;7.80;99.90
26107;DHT22;13866;50.748;12.630;2023-02-18T02:21:14;7.70;99.90
26107;DHT22;13866;50.748;12.630;2023-02-18T02:27:13;7.70;99.90
26107;DHT22;13866;50.748;12.630;2023-02-18T02:30:11;7.70;99.90
26107;DHT22;13866;50.748;12.630;2023-02-18T02:35:25;7.70;99.90
26107;DHT22;13866;50.748;12.630;2023-02-18T02:37:58;7.70;99.90
26107;DHT22;13866;50.748;12.630;2023-02-18T02:43:50;7.60;99.90
26107;DHT22;13866;50.748;12.630;2023-02-18T02:46:31;7.70;99.90
26107;DHT22;13866;50.748;12.630;2023-02-18T02:56:39;7.70;99.90
26107;DHT22;13866;50.748;12.630;2023-02-18T02:59:08;7.70;99.90
26107;DHT22;13866;50.748;12.630;2023-02-18T03:02:11;7.60;99.90
26107;DHT22;13866;50.748;12.630;2023-02-18T03:08:03;7.60;99.90
26107;DHT22;13866;50.748;12.630;2023-02-18T03:10:54;7.60;99.90
26107;DHT22;13866;50.748;12.630;2023-02-18T03:13:41;7.60;99.90
26107;DHT22;13866;50.748;12.630;2023-02-18T03:18:53;7.60;99.90
26107;DHT22;13866;50.748;12.630;2023-02-18T03:22:07;7.50;99.90
26107;DHT22;13866;50.748;12.630;2023-02-18T03:24:22;7.40;99.90
26107;DHT22;13866;50.748;12.630;2023-02-18T03:26:59;7.30;99.90
26107;DHT22;13866;50.748;12.630;2023-02-18T03:29:28;7.30;99.90
26107;DHT22;13866;50.748;12.630;2023-02-18T03:31:58;7.30;99.90
26107;DHT22;13866;50.748;12.630;2023-02-18T03:34:31;7.30;99.90
26107;DHT22;13866;50.748;12.630;2023-02-18T03:36:59;7.30;99.90
26107;DHT22;13866;50.748;12.630;2023-02-18T03:39:27;7.30;99.90
26107;DHT22;13866;50.748;12.630;2023-02-18T03:41:53;7.30;99.90
26107;DHT22;13866;50.748;12.630;2023-02-18T03:44:19;7.30;99.90
26107;DHT22;13866;50.748;12.630;2023-02-18T03:46:44;7.20;99.90
26107;DHT22;13866;50.748;12.630;2023-02-18T03:49:11;7.20;99.90
26107;DHT22;13866;50.748;12.630;2023-02-18T03:51:37;7.20;99.90
26107;DHT22;13866;50.748;12.630;2023-02-18T03:54:02;7.20;99.90
26107;DHT22;13866;50.748;12.630;2023-02-18T03:56:28;7.20;99.90
26107;DHT22;13866;50.748;12.630;2023-02-18T03:58:53;7.20;99.90
26107;DHT22;13866;50.748;12.630;2023-02-18T04:01:19;7.20;99.90
26107;DHT22;13866;50.748;12.630;2023-02-18T04:03:45;7.20;99.90
26107;DHT22;13866;50.748;12.630;2023-02-18T04:06:10;7.20;99.90
26107;DHT22;13866;50.748;12.630;2023-02-18T04:08:36;7.20;99.90
26107;DHT22;13866;50.748;12.630;2023-02-18T04:11:02;7.20;99.90
26107;DHT22;13866;50.748;12.630;2023-02-18T04:13:27;7.20;99.90
26107;DHT22;13866;50.748;12.630;2023-02-18T04:15:53;7.20;99.90
26107;DHT22;13866;50.748;12.630;2023-02-18T04:18:19;7.20;99.90
26107;DHT22;13866;50.748;12.630;2023-02-18T04:20:44;7.20;99.90
26107;DHT22;13866;50.748;12.630;2023-02-18T04:23:12;7.20;99.90
26107;DHT22;13866;50.748;12.630;2023-02-18T04:25:38;7.20;99.90
26107;DHT22;13866;50.748;12.630;2023-02-18T04:28:04;7.20;99.90
26107;DHT22;13866;50.748;12.630;2023-02-18T04:30:30;7.10;99.90
26107;DHT22;13866;50.748;12.630;2023-02-18T04:32:55;7.20;99.90
26107;DHT22;13866;50.748;12.630;2023-02-18T04:35:21;7.20;99.90
26107;DHT22;13866;50.748;12.630;2023-02-18T04:37:46;7.10;99.90
26107;DHT22;13866;50.748;12.630;2023-02-18T04:40:12;7.20;99.90
26107;DHT22;13866;50.748;12.630;2023-02-18T04:42:37;7.20;99.90
26107;DHT22;13866;50.748;12.630;2023-02-18T04:45:03;7.20;99.90
26107;DHT22;13866;50.748;12.630;2023-02-18T04:47:29;7.20;99.90
26107;DHT22;13866;50.748;12.630;2023-02-18T04:49:54;7.20;99.90
26107;DHT22;13866;50.748;12.630;2023-02-18T04:52:20;7.20;99.90
26107;DHT22;13866;50.748;12.630;2023-02-18T04:54:45;7.20;99.90
26107;DHT22;13866;50.748;12.630;2023-02-18T04:57:11;7.30;99.90
26107;DHT22;13866;50.748;12.630;2023-02-18T04:59:37;7.20;99.90
26107;DHT22;13866;50.748;12.630;2023-02-18T05:02:03;7.30;99.90
26107;DHT22;13866;50.748;12.630;2023-02-18T05:04:28;7.30;99.90
26107;DHT22;13866;50.748;12.630;2023-02-18T05:06:54;7.30;99.90
26107;DHT22;13866;50.748;12.630;2023-02-18T05:09:20;7.30;99.90
26107;DHT22;13866;50.748;12.630;2023-02-18T05:11:45;7.30;99.90
26107;DHT22;13866;50.748;12.630;2023-02-18T05:14:12;7.30;99.90
26107;DHT22;13866;50.748;12.630;2023-02-18T05:16:38;7.30;99.90
26107;DHT22;13866;50.748;12.630;2023-02-18T05:19:04;7.30;99.90
26107;DHT22;13866;50.748;12.630;2023-02-18T05:21:29;7.40;99.90
26107;DHT22;13866;50.748;12.630;2023-02-18T05:23:55;7.40;99.90
26107;DHT22;13866;50.748;12.630;2023-02-18T05:26:20;7.40;99.90
26107;DHT22;13866;50.748;12.630;2023-02-18T05:28:45;7.40;99.90
26107;DHT22;13866;50.748;12.630;2023-02-18T05:31:11;7.40;99.90
26107;DHT22;13866;50.748;12.630;2023-02-18T05:33:36;7.40;99.90
26107;DHT22;13866;50.748;12.630;2023-02-18T05:36:02;7.40;99.90
26107;DHT22;13866;50.748;12.630;2023-02-18T05:38:28;7.40;99.90
26107;DHT22;13866;50.748;12.630;2023-02-18T05:40:54;7.40;99.90
26107;DHT22;13866;50.748;12.630;2023-02-18T05:43:19;7.40;99.90
26107;DHT22;13866;50.748;12.630;2023-02-18T05:45:45;7.40;99.90
26107;DHT22;13866;50.748;12.630;2023-02-18T05:48:10;7.40;99.90
26107;DHT22;13866;50.748;12.630;2023-02-18T05:50:36;7.50;99.90
26107;DHT22;13866;50.748;12.630;2023-02-18T05:53:01;7.50;99.90
26107;DHT22;13866;50.748;12.630;2023-02-18T05:55:27;7.50;99.90
26107;DHT22;13866;50.748;12.630;2023-02-18T05:57:52;7.60;99.90
26107;DHT22;13866;50.748;12.630;2023-02-18T06:00:18;7.60;99.90
26107;DHT22;13866;50.748;12.630;2023-02-18T06:02:44;7.70;99.90
26107;DHT22;13866;50.748;12.630;2023-02-18T06:05:09;7.70;99.90
26107;DHT22;13866;50.748;12.630;2023-02-18T06:07:35;7.70;99.90
26107;DHT22;13866;50.748;12.630;2023-02-18T06:10:01;7.70;99.90
26107;DHT22;13866;50.748;12.630;2023-02-18T06:12:26;7.80;99.90
26107;DHT22;13866;50.748;12.630;2023-02-18T06:14:52;7.80;99.90
26107;DHT22;13866;50.748;12.630;2023-02-18T06:17:18;7.80;99.90
26107;DHT22;13866;50.748;12.630;2023-02-18T06:19:44;7.80;99.90
26107;DHT22;13866;50.748;12.630;2023-02-18T06:22:10;7.90;99.90
26107;DHT22;13866;50.748;12.630;2023-02-18T06:24:36;7.90;99.90
26107;DHT22;13866;50.748;12.630;2023-02-18T06:27:02;8.00;99.90
26107;DHT22;13866;50.748;12.630;2023-02-18T06:29:28;8.10;99.90
26107;DHT22;13866;50.748;12.630;2023-02-18T06:31:57;8.10;99.90
26107;DHT22;13866;50.748;12.630;2023-02-18T06:34:22;8.10;99.90
26107;DHT22;13866;50.748;12.630;2023-02-18T06:36:48;8.10;99.90
26107;DHT22;13866;50.748;12.630;2023-02-18T06:39:14;8.10;99.90
26107;DHT22;13866;50.748;12.630;2023-02-18T06:41:39;8.20;99.90
26107;DHT22;13866;50.748;12.630;2023-02-18T06:44:05;8.20;99.90
26107;DHT22;13866;50.748;12.630;2023-02-18T06:46:30;8.20;99.90
26107;DHT22;13866;50.748;12.630;2023-02-18T06:48:56;8.30;99.90
26107;DHT22;13866;50.748;12.630;2023-02-18T06:51:21;8.30;99.90
26107;DHT22;13866;50.748;12.630;2023-02-18T06:53:47;8.30;99.90
26107;DHT22;13866;50.748;12.630;2023-02-18T06:56:12;8.30;99.90
26107;DHT22;13866;50.748;12.630;2023-02-18T06:58:38;8.30;99.90
26107;DHT22;13866;50.748;12.630;2023-02-18T07:01:04;8.40;99.90
26107;DHT22;13866;50.748;12.630;2023-02-18T07:03:29;8.40;99.90
26107;DHT22;13866;50.748;12.630;2023-02-18T07:05:55;8.50;99.90
26107;DHT22;13866;50.748;12.630;2023-02-18T07:08:21;8.50;99.90
26107;DHT22;13866;50.748;12.630;2023-02-18T07:10:46;8.50;99.90
26107;DHT22;13866;50.748;12.630;2023-02-18T07:13:12;8.60;99.90
26107;DHT22;13866;50.748;12.630;2023-02-18T07:15:38;8.60;99.90
26107;DHT22;13866;50.748;12.630;2023-02-18T07:18:03;8.60;99.90
26107;DHT22;13866;50.748;12.630;2023-02-18T07:20:29;8.70;99.90
26107;DHT22;13866;50.748;12.630;2023-02-18T07:22:54;8.70;99.90
26107;DHT22;13866;50.748;12.630;2023-02-18T07:25:20;8.70;99.90
26107;DHT22;13866;50.748;12.630;2023-02-18T07:27:46;8.80;99.90
26107;DHT22;13866;50.748;12.630;2023-02-18T07:30:12;8.80;99.90
26107;DHT22;13866;50.748;12.630;2023-02-18T07:32:37;8.90;99.90
26107;DHT22;13866;50.748;12.630;2023-02-18T07:35:04;8.90;99.90
26107;DHT22;13866;50.748;12.630;2023-02-18T07:37:30;9.00;99.90
26107;DHT22;13866;50.748;12.630;2023-02-18T07:39:55;9.00;99.90
26107;DHT22;13866;50.748;12.630;2023-02-18T07:42:21;9.10;99.90
26107;DHT22;13866;50.748;12.630;2023-02-18T07:44:47;9.10;99.90
26107;DHT22;13866;50.748;12.630;2023-02-18T07:47:14;9.20;99.90
26107;DHT22;13866;50.748;12.630;2023-02-18T07:49:41;9.20;99.90
26107;DHT22;13866;50.748;12.630;2023-02-18T07:52:06;9.20;99.90
26107;DHT22;13866;50.748;12.630;2023-02-18T07:54:32;9.30;99.90
26107;DHT22;13866;50.748;12.630;2023-02-18T07:56:57;9.30;99.90
26107;DHT22;13866;50.748;12.630;2023-02-18T07:59:23;9.30;99.90
26107;DHT22;13866;50.748;12.630;2023-02-18T08:01:48;9.40;99.90
26107;DHT22;13866;50.748;12.630;2023-02-18T08:04:14;9.40;99.90
26107;DHT22;13866;50.748;12.630;2023-02-18T08:06:42;9.40;99.90
26107;DHT22;13866;50.748;12.630;2023-02-18T08:09:10;9.50;99.90
26107;DHT22;13866;50.748;12.630;2023-02-18T08:11:35;9.50;99.90
26107;DHT22;13866;50.748;12.630;2023-02-18T08:14:01;9.50;99.90
26107;DHT22;13866;50.748;12.630;2023-02-18T08:16:27;9.50;99.90
26107;DHT22;13866;50.748;12.630;2023-02-18T08:18:53;9.60;99.90
26107;DHT22;13866;50.748;12.630;2023-02-18T08:21:20;9.60;99.90
26107;DHT22;13866;50.748;12.630;2023-02-18T08:23:47;9.60;99.90
26107;DHT22;13866;50.748;12.630;2023-02-18T08:26:12;9.60;99.90
26107;DHT22;13866;50.748;12.630;2023-02-18T08:28:38;9.70;99.90
26107;DHT22;13866;50.748;12.630;2023-02-18T08:31:04;9.70;99.90
26107;DHT22;13866;50.748;12.630;2023-02-18T08:33:30;9.70;99.90
26107;DHT22;13866;50.748;12.630;2023-02-18T08:35:55;9.70;99.90
26107;DHT22;13866;50.748;12.630;2023-02-18T08:38:23;9.80;99.90
26107;DHT22;13866;50.748;12.630;2023-02-18T08:40:48;9.80;99.90
26107;DHT22;13866;50.748;12.630;2023-02-18T08:43:15;9.80;99.90
26107;DHT22;13866;50.748;12.630;2023-02-18T08:45:42;9.80;99.90
26107;DHT22;13866;50.748;12.630;2023-02-18T08:48:09;9.70;99.90
26107;DHT22;13866;50.748;12.630;2023-02-18T08:50:35;9.70;99.90
26107;DHT22;13866;50.748;12.630;2023-02-18T08:53:01;9.60;99.90
26107;DHT22;13866;50.748;12.630;2023-02-18T08:55:28;9.60;99.90
26107;DHT22;13866;50.748;12.630;2023-02-18T08:57:54;9.60;99.90
26107;DHT22;13866;50.748;12.630;2023-02-18T09:00:20;9.60;99.90
26107;DHT22;13866;50.748;12.630;2023-02-18T09:02:45;9.60;99.90
26107;DHT22;13866;50.748;12.630;2023-02-18T09:05:12;9.70;99.90
26107;DHT22;13866;50.748;12.630;2023-02-18T09:07:38;9.70;99.90
26107;DHT22;13866;50.748;12.630;2023-02-18T09:10:04;9.70;99.90
26107;DHT22;13866;50.748;12.630;2023-02-18T09:12:30;9.80;99.90
26107;DHT22;13866;50.748;12.630;2023-02-18T09:14:56;9.80;99.90
26107;DHT22;13866;50.748;12.630;2023-02-18T09:17:21;9.80;99.90
26107;DHT22;13866;50.748;12.630;2023-02-18T09:19:47;9.80;99.90
26107;DHT22;13866;50.748;12.630;2023-02-18T09:22:12;9.80;99.90
26107;DHT22;13866;50.748;12.630;2023-02-18T09:24:39;9.80;99.90
26107;DHT22;13866;50.748;12.630;2023-02-18T09:27:05;9.80;99.90
26107;DHT22;13866;50.748;12.630;2023-02-18T09:29:31;9.80;99.90
26107;DHT22;13866;50.748;12.630;2023-02-18T09:32:00;9.80;99.90
26107;DHT22;13866;50.748;12.630;2023-02-18T09:34:26;9.80;99.90
26107;DHT22;13866;50.748;12.630;2023-02-18T09:36:52;9.80;99.90
26107;DHT22;13866;50.748;12.630;2023-02-18T09:39:17;9.80;99.90
26107;DHT22;13866;50.748;12.630;2023-02-18T09:41:45;9.90;99.90
26107;DHT22;13866;50.748;12.630;2023-02-18T09:46:54;10.00;99.90
26107;DHT22;13866;50.748;12.630;2023-02-18T09:49:27;10.00;99.90
26107;DHT22;13866;50.748;12.630;2023-02-18T09:51:56;10.00;99.90
26107;DHT22;13866;50.748;12.630;2023-02-18T09:54:26;10.00;99.90
26107;DHT22;13866;50.748;12.630;2023-02-18T09:56:52;10.10;99.90
26107;DHT22;13866;50.748;12.630;2023-02-18T09:59:21;10.10;99.90
26107;DHT22;13866;50.748;12.630;2023-02-18T10:01:50;10.20;99.90
26107;DHT22;13866;50.748;12.630;2023-02-18T10:04:42;10.20;99.90
26107;DHT22;13866;50.748;12.630;2023-02-18T10:07:18;10.30;99.90
26107;DHT22;13866;50.748;12.630;2023-02-18T10:09:45;10.30;99.90
26107;DHT22;13866;50.748;12.630;2023-02-18T10:12:21;10.40;99.90
26107;DHT22;13866;50.748;12.630;2023-02-18T10:14:50;10.40;99.90
26107;DHT22;13866;50.748;12.630;2023-02-18T10:17:16;10.50;99.90
26107;DHT22;13866;50.748;12.630;2023-02-18T10:19:42;10.50;99.90
26107;DHT22;13866;50.748;12.630;2023-02-18T10:22:11;10.60;99.90
26107;DHT22;13866;50.748;12.630;2023-02-18T10:24:40;10.70;99.90
26107;DHT22;13866;50.748;12.630;2023-02-18T10:27:08;10.70;99.90
26107;DHT22;13866;50.748;12.630;2023-02-18T10:29:34;10.70;99.90
26107;DHT22;13866;50.748;12.630;2023-02-18T10:32:18;10.70;99.90
26107;DHT22;13866;50.748;12.630;2023-02-18T10:34:54;10.60;99.90
26107;DHT22;13866;50.748;12.630;2023-02-18T10:40:53;10.60;99.90
26107;DHT22;13866;50.748;12.630;2023-02-18T10:46:39;10.40;99.90
26107;DHT22;13866;50.748;12.630;2023-02-18T10:51:47;10.40;99.90
26107;DHT22;13866;50.748;12.630;2023-02-18T10:54:14;10.40;99.90
26107;DHT22;13866;50.748;12.630;2023-02-18T10:56:48;10.40;99.90
26107;DHT22;13866;50.748;12.630;2023-02-18T11:04:37;10.50;99.90
26107;DHT22;13866;50.748;12.630;2023-02-18T11:07:09;10.40;99.90
26107;DHT22;13866;50.748;12.630;2023-02-18T11:09:45;10.30;99.90
26107;DHT22;13866;50.748;12.630;2023-02-18T11:17:40;10.30;99.90
26107;DHT22;13866;50.748;12.630;2023-02-18T11:20:19;10.30;99.90
26107;DHT22;13866;50.748;12.630;2023-02-18T11:22:45;10.30;99.90
26107;DHT22;13866;50.748;12.630;2023-02-18T11:25:21;10.30;99.90
26107;DHT22;13866;50.748;12.630;2023-02-18T11:27:58;10.20;99.90
26107;DHT22;13866;50.748;12.630;2023-02-18T11:30:34;10.20;99.90
26107;DHT22;13866;50.748;12.630;2023-02-18T11:33:20;10.20;99.90
26107;DHT22;13866;50.748;12.630;2023-02-18T11:35:51;10.10;99.90
26107;DHT22;13866;50.748;12.630;2023-02-18T11:38:36;10.00;99.90
26107;DHT22;13866;50.748;12.630;2023-02-18T11:41:06;10.00;99.90
26107;DHT22;13866;50.748;12.630;2023-02-18T11:43:33;10.00;99.90
26107;DHT22;13866;50.748;12.630;2023-02-18T11:46:13;9.90;99.90
26107;DHT22;13866;50.748;12.630;2023-02-18T11:48:40;9.80;99.90
26107;DHT22;13866;50.748;12.630;2023-02-18T11:51:07;9.80;99.90
26107;DHT22;13866;50.748;12.630;2023-02-18T11:53:38;9.80;99.90
26107;DHT22;13866;50.748;12.630;2023-02-18T11:56:15;9.80;99.90
26107;DHT22;13866;50.748;12.630;2023-02-18T11:58:44;9.80;99.90
26107;DHT22;13866;50.748;12.630;2023-02-18T12:01:31;9.80;99.90
26107;DHT22;13866;50.748;12.630;2023-02-18T12:04:14;9.80;99.90
26107;DHT22;13866;50.748;12.630;2023-02-18T12:06:54;9.80;99.90
26107;DHT22;13866;50.748;12.630;2023-02-18T12:09:32;9.90;99.90
26107;DHT22;13866;50.748;12.630;2023-02-18T12:12:09;9.90;99.90
26107;DHT22;13866;50.748;12.630;2023-02-18T12:14:36;9.90;99.90
26107;DHT22;13866;50.748;12.630;2023-02-18T12:20:12;9.80;99.90
26107;DHT22;13866;50.748;12.630;2023-02-18T12:23:07;9.70;99.90
26107;DHT22;13866;50.748;12.630;2023-02-18T12:25:54;9.70;99.90
26107;DHT22;13866;50.748;12.630;2023-02-18T12:31:24;9.60;99.90
26107;DHT22;13866;50.748;12.630;2023-02-18T12:37:04;9.70;99.90
26107;DHT22;13866;50.748;12.630;2023-02-18T12:45:26;9.90;99.90
26107;DHT22;13866;50.748;12.630;2023-02-18T12:48:23;9.90;99.90
26107;DHT22;13866;50.748;12.630;2023-02-18T12:51:08;9.90;99.90
26107;DHT22;13866;50.748;12.630;2023-02-18T12:53:57;9.90;99.90
26107;DHT22;13866;50.748;12.630;2023-02-18T12:56:43;9.90;99.90
26107;DHT22;13866;50.748;12.630;2023-02-18T12:59:38;9.80;99.90
26107;DHT22;13866;50.748;12.630;2023-02-18T13:08:13;9.80;99.90
26107;DHT22;13866;50.748;12.630;2023-02-18T13:13:39;9.80;99.90
26107;DHT22;13866;50.748;12.630;2023-02-18T13:16:10;9.90;99.90
26107;DHT22;13866;50.748;12.630;2023-02-18T13:18:44;9.90;99.90
26107;DHT22;13866;50.748;12.630;2023-02-18T13:21:13;9.90;99.90
26107;DHT22;13866;50.748;12.630;2023-02-18T13:23:55;9.90;99.90
26107;DHT22;13866;50.748;12.630;2023-02-18T13:26:21;9.80;99.90
26107;DHT22;13866;50.748;12.630;2023-02-18T13:31:49;9.80;99.90
26107;DHT22;13866;50.748;12.630;2023-02-18T13:34:24;9.80;99.90
26107;DHT22;13866;50.748;12.630;2023-02-18T13:39:29;9.70;99.90
26107;DHT22;13866;50.748;12.630;2023-02-18T13:47:40;9.60;99.90
26107;DHT22;13866;50.748;12.630;2023-02-18T13:50:20;9.60;99.90
26107;DHT22;13866;50.748;12.630;2023-02-18T13:52:48;9.60;99.90
26107;DHT22;13866;50.748;12.630;2023-02-18T13:55:19;9.60;99.90
26107;DHT22;13866;50.748;12.630;2023-02-18T13:57:52;9.60;99.90
26107;DHT22;13866;50.748;12.630;2023-02-18T14:00:23;9.60;99.90
26107;DHT22;13866;50.748;12.630;2023-02-18T14:02:58;9.60;99.90
26107;DHT22;13866;50.748;12.630;2023-02-18T14:05:25;9.50;99.90
26107;DHT22;13866;50.748;12.630;2023-02-18T14:08:29;9.50;99.90
26107;DHT22;13866;50.748;12.630;2023-02-18T14:13:42;9.40;99.90
26107;DHT22;13866;50.748;12.630;2023-02-18T14:16:11;9.40;99.90
26107;DHT22;13866;50.748;12.630;2023-02-18T14:26:17;9.40;99.90
26107;DHT22;13866;50.748;12.630;2023-02-18T14:33:40;9.40;99.90
26107;DHT22;13866;50.748;12.630;2023-02-18T14:36:29;9.40;99.90
26107;DHT22;13866;50.748;12.630;2023-02-18T14:39:07;9.40;99.90
26107;DHT22;13866;50.748;12.630;2023-02-18T14:47:34;9.40;99.90
26107;DHT22;13866;50.748;12.630;2023-02-18T14:50:10;9.50;99.90
26107;DHT22;13866;50.748;12.630;2023-02-18T14:52:41;9.50;99.90
26107;DHT22;13866;50.748;12.630;2023-02-18T14:55:27;9.40;99.90
26107;DHT22;13866;50.748;12.630;2023-02-18T14:57:59;9.50;99.90
26107;DHT22;13866;50.748;12.630;2023-02-18T15:00:27;9.40;99.90
26107;DHT22;13866;50.748;12.630;2023-02-18T15:02:57;9.50;99.90
26107;DHT22;13866;50.748;12.630;2023-02-18T15:05:26;9.50;99.90
26107;DHT22;13866;50.748;12.630;2023-02-18T15:08:06;9.50;99.90
26107;DHT22;13866;50.748;12.630;2023-02-18T15:10:56;9.50;99.90
26107;DHT22;13866;50.748;12.630;2023-02-18T15:13:29;9.50;99.90
26107;DHT22;13866;50.748;12.630;2023-02-18T15:15:59;9.50;99.90
26107;DHT22;13866;50.748;12.630;2023-02-18T15:18:31;9.50;99.90
26107;DHT22;13866;50.748;12.630;2023-02-18T15:21:00;9.50;99.90
26107;DHT22;13866;50.748;12.630;2023-02-18T15:23:26;9.50;99.90
26107;DHT22;13866;50.748;12.630;2023-02-18T15:25:53;9.50;99.90
26107;DHT22;13866;50.748;12.630;2023-02-18T15:28:24;9.50;99.90
26107;DHT22;13866;50.748;12.630;2023-02-18T15:30:51;9.60;99.90
26107;DHT22;13866;50.748;12.630;2023-02-18T15:33:18;9.60;99.90
26107;DHT22;13866;50.748;12.630;2023-02-18T15:35:44;9.50;99.90
26107;DHT22;13866;50.748;12.630;2023-02-18T15:38:15;9.50;99.90
26107;DHT22;13866;50.748;12.630;2023-02-18T15:40:41;9.50;99.90
26107;DHT22;13866;50.748;12.630;2023-02-18T15:43:07;9.50;99.90
26107;DHT22;13866;50.748;12.630;2023-02-18T15:45:38;9.50;99.90
26107;DHT22;13866;50.748;12.630;2023-02-18T15:48:06;9.40;99.90
26107;DHT22;13866;50.748;12.630;2023-02-18T15:50:34;9.50;99.90
26107;DHT22;13866;50.748;12.630;2023-02-18T15:53:15;9.50;99.90
26107;DHT22;13866;50.748;12.630;2023-02-18T15:55:43;9.50;99.90
26107;DHT22;13866;50.748;12.630;2023-02-18T15:58:16;9.50;99.90
26107;DHT22;13866;50.748;12.630;2023-02-18T16:00:54;9.50;99.90
26107;DHT22;13866;50.748;12.630;2023-02-18T16:09:15;9.50;99.90
26107;DHT22;13866;50.748;12.630;2023-02-18T16:11:55;9.50;99.90
26107;DHT22;13866;50.748;12.630;2023-02-18T16:14:30;9.50;99.90
26107;DHT22;13866;50.748;12.630;2023-02-18T16:17:22;9.50;99.90
26107;DHT22;13866;50.748;12.630;2023-02-18T16:19:57;9.40;99.90
26107;DHT22;13866;50.748;12.630;2023-02-18T16:25:18;9.30;99.90
26107;DHT22;13866;50.748;12.630;2023-02-18T16:30:24;9.20;99.90
26107;DHT22;13866;50.748;12.630;2023-02-18T16:32:50;9.10;99.90
26107;DHT22;13866;50.748;12.630;2023-02-18T16:35:16;9.10;99.90
26107;DHT22;13866;50.748;12.630;2023-02-18T16:37:42;9.10;99.90
26107;DHT22;13866;50.748;12.630;2023-02-18T16:40:33;9.10;99.90
26107;DHT22;13866;50.748;12.630;2023-02-18T16:43:21;9.00;99.90
26107;DHT22;13866;50.748;12.630;2023-02-18T16:45:49;9.00;99.90
26107;DHT22;13866;50.748;12.630;2023-02-18T16:48:36;8.90;99.90
26107;DHT22;13866;50.748;12.630;2023-02-18T16:53:39;8.90;99.90
26107;DHT22;13866;50.748;12.630;2023-02-18T16:56:08;8.90;99.90
26107;DHT22;13866;50.748;12.630;2023-02-18T16:58:36;8.90;99.90
26107;DHT22;13866;50.748;12.630;2023-02-18T17:01:02;8.80;99.90
26107;DHT22;13866;50.748;12.630;2023-02-18T17:03:27;8.90;99.90
26107;DHT22;13866;50.748;12.630;2023-02-18T17:05:53;8.90;99.90
26107;DHT22;13866;50.748;12.630;2023-02-18T17:08:20;8.90;99.90
26107;DHT22;13866;50.748;12.630;2023-02-18T17:10:52;9.00;99.90
26107;DHT22;13866;50.748;12.630;2023-02-18T17:13:26;9.00;99.90
26107;DHT22;13866;50.748;12.630;2023-02-18T17:15:54;9.00;99.90
26107;DHT22;13866;50.748;12.630;2023-02-18T17:18:20;9.10;99.90
26107;DHT22;13866;50.748;12.630;2023-02-18T17:20:50;9.10;99.90
26107;DHT22;13866;50.748;12.630;2023-02-18T17:23:18;9.00;99.90
26107;DHT22;13866;50.748;12.630;2023-02-18T17:25:45;9.10;99.90
26107;DHT22;13866;50.748;12.630;2023-02-18T17:28:12;9.10;99.90
26107;DHT22;13866;50.748;12.630;2023-02-18T17:30:40;9.10;99.90
26107;DHT22;13866;50.748;12.630;2023-02-18T17:33:09;9.10;99.90
26107;DHT22;13866;50.748;12.630;2023-02-18T17:35:36;9.10;99.90
26107;DHT22;13866;50.748;12.630;2023-02-18T17:38:09;9.00;99.90
26107;DHT22;13866;50.748;12.630;2023-02-18T17:40:34;9.00;99.90
26107;DHT22;13866;50.748;12.630;2023-02-18T17:43:00;9.00;99.90
26107;DHT22;13866;50.748;12.630;2023-02-18T17:45:35;8.90;99.90
26107;DHT22;13866;50.748;12.630;2023-02-18T17:48:05;8.80;99.90